sensor_id;sensor_type;location;lat;lon;timestamp;pressure;altitude;pressure_sealevel;temperature;humidity
15880;BME280;61999;51.514;14.614;2024-01-06T00:00:40;98894.31;;;-0.83;100.00
15880;BME280;61999;51.514;14.614;2024-01-06T00:03:08;98892.81;;;-0.87;100.00
15880;BME280;61999;51.514;14.614;2024-01-06T00:05:36;98893.72;;;-0.88;100.00
15880;BME280;61999;51.514;14.614;2024-01-06T00:08:04;98896.41;;;-0.89;100.00
15880;BME280;61999;51.514;14.614;2024-01-06T00:10:34;98892.22;;;-0.92;100.00
15880;BME280;61999;51.514;14.614;2024-01-06T00:13:02;98896.56;;;-0.92;100.00
15880;BME280;61999;51.514;14.614;2024-01-06T00:15:30;98896.63;;;-0.94;100.00
15880;BME280;61999;51.514;14.614;2024-01-06T00:17:59;98895.84;;;-0.96;100.00
15880;BME280;61999;51.514;14.614;2024-01-06T00:20:28;98895.84;;;-0.96;100.00
15880;BME280;61999;51.514;14.614;2024-01-06T00:22:56;98895.00;;;-0.97;100.00
15880;BME280;61999;51.514;14.614;2024-01-06T00:25:25;98884.75;;;-0.98;100.00
15880;BME280;61999;51.514;14.614;2024-01-06T00:28:15;98883.84;;;-0.97;100.00
15880;BME280;61999;51.514;14.614;2024-01-06T00:30:43;98890.81;;;-0.99;100.00
15880;BME280;61999;51.514;14.614;2024-01-06T00:33:11;98892.59;;;-1.00;100.00
15880;BME280;61999;51.514;14.614;2024-01-06T00:35:39;98889.22;;;-1.02;100.00
15880;BME280;61999;51.514;14.614;2024-01-06T00:38:08;98889.47;;;-1.06;100.00
15880;BME280;61999;51.514;14.614;2024-01-06T00:40:35;98894.81;;;-1.09;100.00
15880;BME280;61999;51.514;14.614;2024-01-06T00:43:05;98893.28;;;-1.13;100.00
15880;BME280;61999;51.514;14.614;2024-01-06T00:45:33;98896.94;;;-1.17;100.00
15880;BME280;61999;51.514;14.614;2024-01-06T00:48:01;98902.25;;;-1.21;100.00
15880;BME280;61999;51.514;14.614;2024-01-06T00:50:29;98900.72;;;-1.25;100.00
15880;BME280;61999;51.514;14.614;2024-01-06T00:52:57;98906.03;;;-1.28;100.00
15880;BME280;61999;51.514;14.614;2024-01-06T00:55:25;98906.19;;;-1.31;100.00
15880;BME280;61999;51.514;14.614;2024-01-06T00:57:53;98906.34;;;-1.34;100.00
15880;BME280;61999;51.514;14.614;2024-01-06T01:00:22;98907.31;;;-1.36;100.00
15880;BME280;61999;51.514;14.614;2024-01-06T01:02:50;98912.75;;;-1.41;100.00
15880;BME280;61999;51.514;14.614;2024-01-06T01:05:18;98911.97;;;-1.43;100.00
15880;BME280;61999;51.514;14.614;2024-01-06T01:07:46;98917.28;;;-1.46;100.00
15880;BME280;61999;51.514;14.614;2024-01-06T01:10:14;98925.19;;;-1.49;100.00
15880;BME280;61999;51.514;14.614;2024-01-06T01:12:42;98924.41;;;-1.51;100.00
15880;BME280;61999;51.514;14.614;2024-01-06T01:15:10;98929.72;;;-1.54;100.00
15880;BME280;61999;51.514;14.614;2024-01-06T01:17:40;98933.38;;;-1.58;100.00
15880;BME280;61999;51.514;14.614;2024-01-06T01:20:09;98932.63;;;-1.60;100.00
15880;BME280;61999;51.514;14.614;2024-01-06T01:22:37;98936.97;;;-1.62;100.00
15880;BME280;61999;51.514;14.614;2024-01-06T01:25:05;98938.09;;;-1.68;100.00
15880;BME280;61999;51.514;14.614;2024-01-06T01:27:35;98939.94;;;-1.70;100.00
15880;BME280;61999;51.514;14.614;2024-01-06T01:30:03;98940.91;;;-1.73;100.00
15880;BME280;61999;51.514;14.614;2024-01-06T01:32:32;98940.19;;;-1.76;100.00
15880;BME280;61999;51.514;14.614;2024-01-06T01:35:01;98939.38;;;-1.77;100.00
15880;BME280;61999;51.514;14.614;2024-01-06T01:37:30;98940.34;;;-1.79;100.00
15880;BME280;61999;51.514;14.614;2024-01-06T01:39:58;98943.00;;;-1.81;100.00
15880;BME280;61999;51.514;14.614;2024-01-06T01:42:26;98943.00;;;-1.81;100.00
15880;BME280;61999;51.514;14.614;2024-01-06T01:44:54;98937.06;;;-1.83;100.00
15880;BME280;61999;51.514;14.614;2024-01-06T01:47:23;98939.66;;;-1.83;100.00
15880;BME280;61999;51.514;14.614;2024-01-06T01:49:52;98936.28;;;-1.85;100.00
15880;BME280;61999;51.514;14.614;2024-01-06T01:52:21;98936.44;;;-1.88;100.00
15880;BME280;61999;51.514;14.614;2024-01-06T01:54:50;98943.31;;;-1.87;100.00
15880;BME280;61999;51.514;14.614;2024-01-06T01:57:24;98936.44;;;-1.88;100.00
15880;BME280;61999;51.514;14.614;2024-01-06T01:59:53;98937.34;;;-1.89;100.00
15880;BME280;61999;51.514;14.614;2024-01-06T02:02:23;98939.94;;;-1.89;100.00
15880;BME280;61999;51.514;14.614;2024-01-06T02:04:51;98938.28;;;-1.90;100.00
15880;BME280;61999;51.514;14.614;2024-01-06T02:07:20;98934.78;;;-1.89;100.00
15880;BME280;61999;51.514;14.614;2024-01-06T02:09:49;98941.59;;;-1.88;100.00
15880;BME280;61999;51.514;14.614;2024-01-06T02:12:16;98943.16;;;-1.84;100.00
15880;BME280;61999;51.514;14.614;2024-01-06T02:14:44;98946.63;;;-1.85;100.00
15880;BME280;61999;51.514;14.614;2024-01-06T02:17:12;98947.19;;;-1.78;100.00
15880;BME280;61999;51.514;14.614;2024-01-06T02:19:40;98945.38;;;-1.76;100.00
15880;BME280;61999;51.514;14.614;2024-01-06T02:22:09;98955.34;;;-1.69;100.00
15880;BME280;61999;51.514;14.614;2024-01-06T02:24:37;98931.13;;;-1.66;100.00
15880;BME280;61999;51.514;14.614;2024-01-06T02:27:05;98938.56;;;-1.58;100.00
15880;BME280;61999;51.514;14.614;2024-01-06T02:29:40;98935.69;;;-1.52;100.00
15880;BME280;61999;51.514;14.614;2024-01-06T02:32:09;98938.94;;;-1.49;100.00
15880;BME280;61999;51.514;14.614;2024-01-06T02:34:36;98944.66;;;-1.42;100.00
15880;BME280;61999;51.514;14.614;2024-01-06T02:37:05;98946.19;;;-1.38;100.00
15880;BME280;61999;51.514;14.614;2024-01-06T02:39:34;98941.50;;;-1.30;100.00
15880;BME280;61999;51.514;14.614;2024-01-06T02:42:03;98941.34;;;-1.27;100.00
15880;BME280;61999;51.514;14.614;2024-01-06T02:44:31;98951.28;;;-1.19;100.00
15880;BME280;61999;51.514;14.614;2024-01-06T02:46:59;98951.03;;;-1.13;100.00
15880;BME280;61999;51.514;14.614;2024-01-06T02:49:27;98950.78;;;-1.08;100.00
15880;BME280;61999;51.514;14.614;2024-01-06T02:51:55;98954.03;;;-1.05;100.00
15880;BME280;61999;51.514;14.614;2024-01-06T02:54:23;98948.81;;;-1.03;100.00
15880;BME280;61999;51.514;14.614;2024-01-06T02:56:53;98948.72;;;-1.02;100.00
15880;BME280;61999;51.514;14.614;2024-01-06T02:59:20;98957.34;;;-1.01;100.00
15880;BME280;61999;51.514;14.614;2024-01-06T03:01:48;98957.50;;;-1.04;100.00
15880;BME280;61999;51.514;14.614;2024-01-06T03:04:16;98953.16;;;-1.04;100.00
15880;BME280;61999;51.514;14.614;2024-01-06T03:06:45;98954.75;;;-1.01;100.00
15880;BME280;61999;51.514;14.614;2024-01-06T03:09:18;98948.66;;;-1.00;100.00
15880;BME280;61999;51.514;14.614;2024-01-06T03:11:47;98948.66;;;-1.00;100.00
15880;BME280;61999;51.514;14.614;2024-01-06T03:14:16;98951.41;;;-1.03;100.00
15880;BME280;61999;51.514;14.614;2024-01-06T03:16:44;98960.81;;;-1.02;100.00
15880;BME280;61999;51.514;14.614;2024-01-06T03:19:12;98954.91;;;-1.04;100.00
15880;BME280;61999;51.514;14.614;2024-01-06T03:21:40;98961.59;;;-1.00;100.00
15880;BME280;61999;51.514;14.614;2024-01-06T03:24:08;98963.41;;;-1.02;100.00
15880;BME280;61999;51.514;14.614;2024-01-06T03:26:36;98958.09;;;-0.99;100.00
15880;BME280;61999;51.514;14.614;2024-01-06T03:29:04;98964.13;;;-0.99;100.00
15880;BME280;61999;51.514;14.614;2024-01-06T03:31:34;98967.53;;;-0.98;100.00
15880;BME280;61999;51.514;14.614;2024-01-06T03:34:02;98973.59;;;-0.99;100.00
15880;BME280;61999;51.514;14.614;2024-01-06T03:36:30;98971.09;;;-1.01;100.00
15880;BME280;61999;51.514;14.614;2024-01-06T03:38:58;98975.44;;;-1.01;100.00
15880;BME280;61999;51.514;14.614;2024-01-06T03:41:26;98972.16;;;-1.05;100.00
15880;BME280;61999;51.514;14.614;2024-01-06T03:43:54;98967.91;;;-1.06;100.00
15880;BME280;61999;51.514;14.614;2024-01-06T03:46:23;98965.41;;;-1.07;100.00
15880;BME280;61999;51.514;14.614;2024-01-06T03:48:52;98972.25;;;-1.06;100.00
15880;BME280;61999;51.514;14.614;2024-01-06T03:51:20;98967.06;;;-1.06;100.00
15880;BME280;61999;51.514;14.614;2024-01-06T03:53:48;98976.50;;;-1.05;100.00
15880;BME280;61999;51.514;14.614;2024-01-06T03:56:16;98960.22;;;-1.07;100.00
15880;BME280;61999;51.514;14.614;2024-01-06T03:58:47;98968.88;;;-1.08;100.00
15880;BME280;61999;51.514;14.614;2024-01-06T04:01:16;98964.69;;;-1.11;100.00
15880;BME280;61999;51.514;14.614;2024-01-06T04:03:44;98977.72;;;-1.12;100.00
15880;BME280;61999;51.514;14.614;2024-01-06T04:06:13;98968.41;;;-1.16;100.00
15880;BME280;61999;51.514;14.614;2024-01-06T04:08:41;98978.84;;;-1.18;100.00
15880;BME280;61999;51.514;14.614;2024-01-06T04:11:09;98976.31;;;-1.20;100.00
15880;BME280;61999;51.514;14.614;2024-01-06T04:13:37;98985.16;;;-1.24;100.00
15880;BME280;61999;51.514;14.614;2024-01-06T04:16:05;98985.28;;;-1.27;100.00
15880;BME280;61999;51.514;14.614;2024-01-06T04:18:33;98989.84;;;-1.32;100.00
15880;BME280;61999;51.514;14.614;2024-01-06T04:21:02;98988.44;;;-1.39;100.00
15880;BME280;61999;51.514;14.614;2024-01-06T04:23:31;98987.56;;;-1.38;100.00
15880;BME280;61999;51.514;14.614;2024-01-06T04:25:59;98987.56;;;-1.38;100.00
15880;BME280;61999;51.514;14.614;2024-01-06T04:28:28;98996.19;;;-1.39;100.00
15880;BME280;61999;51.514;14.614;2024-01-06T04:30:56;99005.56;;;-1.36;100.00
15880;BME280;61999;51.514;14.614;2024-01-06T04:33:24;99001.25;;;-1.36;100.00
15880;BME280;61999;51.514;14.614;2024-01-06T04:35:52;98995.06;;;-1.33;100.00
15880;BME280;61999;51.514;14.614;2024-01-06T04:38:21;99000.97;;;-1.30;100.00
15880;BME280;61999;51.514;14.614;2024-01-06T04:40:50;98999.88;;;-1.26;100.00
15880;BME280;61999;51.514;14.614;2024-01-06T04:43:18;99007.50;;;-1.23;100.00
15880;BME280;61999;51.514;14.614;2024-01-06T04:45:46;99003.88;;;-1.18;100.00
15880;BME280;61999;51.514;14.614;2024-01-06T04:48:14;99002.81;;;-1.14;100.00
15880;BME280;61999;51.514;14.614;2024-01-06T04:50:42;99006.91;;;-1.10;100.00
15880;BME280;61999;51.514;14.614;2024-01-06T04:53:10;99001.63;;;-1.07;100.00
15880;BME280;61999;51.514;14.614;2024-01-06T04:55:38;99007.47;;;-1.04;100.00
15880;BME280;61999;51.514;14.614;2024-01-06T04:58:07;99001.47;;;-1.04;100.00
15880;BME280;61999;51.514;14.614;2024-01-06T05:00:35;98998.72;;;-1.01;100.00
15880;BME280;61999;51.514;14.614;2024-01-06T05:03:04;99002.97;;;-1.00;100.00
15880;BME280;61999;51.514;14.614;2024-01-06T05:05:32;99002.00;;;-0.98;100.00
15880;BME280;61999;51.514;14.614;2024-01-06T05:08:00;98992.41;;;-0.95;100.00
15880;BME280;61999;51.514;14.614;2024-01-06T05:10:28;98997.50;;;-0.94;100.00
15880;BME280;61999;51.514;14.614;2024-01-06T05:12:56;99005.03;;;-1.07;100.00
15880;BME280;61999;51.514;14.614;2024-01-06T05:15:26;99002.06;;;-0.99;100.00
15880;BME280;61999;51.514;14.614;2024-01-06T05:17:55;99001.00;;;-0.95;100.00
15880;BME280;61999;51.514;14.614;2024-01-06T05:20:23;99015.59;;;-0.94;100.00
15880;BME280;61999;51.514;14.614;2024-01-06T05:22:51;99019.88;;;-0.93;100.00
15880;BME280;61999;51.514;14.614;2024-01-06T05:25:19;99008.63;;;-0.92;100.00
15880;BME280;61999;51.514;14.614;2024-01-06T05:27:47;99014.84;;;-0.96;100.00
15880;BME280;61999;51.514;14.614;2024-01-06T05:30:15;99012.41;;;-0.99;100.00
15880;BME280;61999;51.514;14.614;2024-01-06T05:32:58;99022.16;;;-1.04;100.00
15880;BME280;61999;51.514;14.614;2024-01-06T05:35:26;99027.31;;;-1.04;100.00
15880;BME280;61999;51.514;14.614;2024-01-06T05:37:54;99037.53;;;-1.01;100.00
15880;BME280;61999;51.514;14.614;2024-01-06T05:40:22;99041.78;;;-1.00;100.00
15880;BME280;61999;51.514;14.614;2024-01-06T05:42:50;99040.94;;;-1.01;100.00
15880;BME280;61999;51.514;14.614;2024-01-06T05:45:22;99047.72;;;-0.98;100.00
15880;BME280;61999;51.514;14.614;2024-01-06T05:47:52;99051.00;;;-0.94;100.00
15880;BME280;61999;51.514;14.614;2024-01-06T05:50:39;99059.09;;;-1.02;100.00
15880;BME280;61999;51.514;14.614;2024-01-06T05:53:10;99060.09;;;-1.05;100.00
15880;BME280;61999;51.514;14.614;2024-01-06T05:55:41;99058.97;;;-0.99;100.00
15880;BME280;61999;51.514;14.614;2024-01-06T05:58:09;99063.09;;;-0.95;100.00
15880;BME280;61999;51.514;14.614;2024-01-06T06:00:37;99069.78;;;-0.91;100.00
15880;BME280;61999;51.514;14.614;2024-01-06T06:03:07;99078.38;;;-0.90;100.00
15880;BME280;61999;51.514;14.614;2024-01-06T06:05:35;99080.13;;;-0.91;100.00
15880;BME280;61999;51.514;14.614;2024-01-06T06:08:04;99081.81;;;-0.90;100.00
15880;BME280;61999;51.514;14.614;2024-01-06T06:10:32;99087.97;;;-0.92;100.00
15880;BME280;61999;51.514;14.614;2024-01-06T06:13:18;99088.81;;;-0.92;100.00
15880;BME280;61999;51.514;14.614;2024-01-06T06:15:46;99101.06;;;-0.95;100.00
15880;BME280;61999;51.514;14.614;2024-01-06T06:18:16;99106.72;;;-1.06;100.00
15880;BME280;61999;51.514;14.614;2024-01-06T06:20:44;99109.53;;;-1.11;100.00
15880;BME280;61999;51.514;14.614;2024-01-06T06:23:12;99109.81;;;-1.17;100.00
15880;BME280;61999;51.514;14.614;2024-01-06T06:25:40;99117.78;;;-1.22;100.00
15880;BME280;61999;51.514;14.614;2024-01-06T06:28:09;99128.00;;;-1.18;100.00
15880;BME280;61999;51.514;14.614;2024-01-06T06:30:37;99122.69;;;-1.15;100.00
15880;BME280;61999;51.514;14.614;2024-01-06T06:33:07;99135.66;;;-1.17;100.00
15880;BME280;61999;51.514;14.614;2024-01-06T06:35:37;99138.25;;;-1.17;100.00
15880;BME280;61999;51.514;14.614;2024-01-06T06:38:05;99141.06;;;-1.22;100.00
15880;BME280;61999;51.514;14.614;2024-01-06T06:40:33;99154.53;;;-1.15;100.00
15880;BME280;61999;51.514;14.614;2024-01-06T06:43:01;99149.16;;;-1.10;100.00
15880;BME280;61999;51.514;14.614;2024-01-06T06:45:29;99148.69;;;-1.18;100.00
15880;BME280;61999;51.514;14.614;2024-01-06T06:47:57;99152.84;;;-1.16;100.00
15880;BME280;61999;51.514;14.614;2024-01-06T06:50:25;99162.06;;;-1.10;100.00
15880;BME280;61999;51.514;14.614;2024-01-06T06:52:54;99160.28;;;-1.08;100.00
15880;BME280;61999;51.514;14.614;2024-01-06T06:55:22;99161.97;;;-1.07;100.00
15880;BME280;61999;51.514;14.614;2024-01-06T06:57:50;99175.78;;;-1.08;100.00
15880;BME280;61999;51.514;14.614;2024-01-06T07:00:19;99177.34;;;-1.04;100.00
15880;BME280;61999;51.514;14.614;2024-01-06T07:02:47;99186.13;;;-1.08;100.00
15880;BME280;61999;51.514;14.614;2024-01-06T07:05:15;99183.41;;;-1.05;100.00
15880;BME280;61999;51.514;14.614;2024-01-06T07:07:44;99186.00;;;-1.05;100.00
15880;BME280;61999;51.514;14.614;2024-01-06T07:10:15;99194.81;;;-1.09;100.00
15880;BME280;61999;51.514;14.614;2024-01-06T07:12:43;99198.56;;;-1.16;100.00
15880;BME280;61999;51.514;14.614;2024-01-06T07:15:11;99205.16;;;-1.09;100.00
15880;BME280;61999;51.514;14.614;2024-01-06T07:17:39;99207.78;;;-1.11;100.00
15880;BME280;61999;51.514;14.614;2024-01-06T07:20:08;99214.31;;;-1.21;100.00
15880;BME280;61999;51.514;14.614;2024-01-06T07:22:36;99216.59;;;-1.15;100.00
15880;BME280;61999;51.514;14.614;2024-01-06T07:25:05;99220.31;;;-1.21;100.00
15880;BME280;61999;51.514;14.614;2024-01-06T07:27:35;99225.97;;;-1.12;100.00
15880;BME280;61999;51.514;14.614;2024-01-06T07:30:06;99223.53;;;-1.15;100.00
15880;BME280;61999;51.514;14.614;2024-01-06T07:32:35;99236.00;;;-1.25;100.00
15880;BME280;61999;51.514;14.614;2024-01-06T07:35:04;99236.38;;;-1.33;100.00
15880;BME280;61999;51.514;14.614;2024-01-06T07:37:33;99239.66;;;-1.29;100.00
15880;BME280;61999;51.514;14.614;2024-01-06T07:40:06;99234.75;;;-1.35;100.00
15880;BME280;61999;51.514;14.614;2024-01-06T07:42:36;99250.00;;;-1.29;100.00
15880;BME280;61999;51.514;14.614;2024-01-06T07:45:09;99253.53;;;-1.32;100.00
15880;BME280;61999;51.514;14.614;2024-01-06T07:47:37;99259.50;;;-1.30;100.00
15880;BME280;61999;51.514;14.614;2024-01-06T07:50:09;99256.53;;;-1.41;100.00
15880;BME280;61999;51.514;14.614;2024-01-06T07:52:37;99255.22;;;-1.31;100.00
15880;BME280;61999;51.514;14.614;2024-01-06T07:55:06;99260.91;;;-1.23;100.00
15880;BME280;61999;51.514;14.614;2024-01-06T07:57:36;99266.75;;;-1.38;100.00
15880;BME280;61999;51.514;14.614;2024-01-06T08:00:06;99270.53;;;-1.26;100.00
15880;BME280;61999;51.514;14.614;2024-01-06T08:02:34;99269.56;;;-1.24;100.00
15880;BME280;61999;51.514;14.614;2024-01-06T08:05:02;99275.63;;;-1.25;100.00
15880;BME280;61999;51.514;14.614;2024-01-06T08:07:30;99272.03;;;-1.21;100.00
15880;BME280;61999;51.514;14.614;2024-01-06T08:09:58;99272.66;;;-1.15;100.00
15880;BME280;61999;51.514;14.614;2024-01-06T08:12:29;99280.47;;;-1.17;100.00
15880;BME280;61999;51.514;14.614;2024-01-06T08:14:58;99277.59;;;-1.30;100.00
15880;BME280;61999;51.514;14.614;2024-01-06T08:17:26;99284.13;;;-1.21;100.00
15880;BME280;61999;51.514;14.614;2024-01-06T08:19:54;99287.22;;;-1.13;100.00
15880;BME280;61999;51.514;14.614;2024-01-06T08:22:22;99289.03;;;-1.15;100.00
15880;BME280;61999;51.514;14.614;2024-01-06T08:24:51;99289.72;;;-1.11;100.00
15880;BME280;61999;51.514;14.614;2024-01-06T08:27:20;99293.09;;;-1.09;100.00
15880;BME280;61999;51.514;14.614;2024-01-06T08:29:50;99299.16;;;-1.10;100.00
15880;BME280;61999;51.514;14.614;2024-01-06T08:32:20;99302.47;;;-1.07;100.00
15880;BME280;61999;51.514;14.614;2024-01-06T08:34:47;99301.81;;;-1.12;100.00
15880;BME280;61999;51.514;14.614;2024-01-06T08:37:15;99311.22;;;-1.30;100.00
15880;BME280;61999;51.514;14.614;2024-01-06T08:39:43;99307.56;;;-1.26;100.00
15880;BME280;61999;51.514;14.614;2024-01-06T08:42:11;99307.03;;;-1.13;100.00
15880;BME280;61999;51.514;14.614;2024-01-06T08:44:39;99321.16;;;-1.21;100.00
15880;BME280;61999;51.514;14.614;2024-01-06T08:47:07;99327.72;;;-1.13;100.00
15880;BME280;61999;51.514;14.614;2024-01-06T08:49:37;99328.78;;;-1.17;100.00
15880;BME280;61999;51.514;14.614;2024-01-06T08:52:05;99321.03;;;-1.17;100.00
15880;BME280;61999;51.514;14.614;2024-01-06T08:54:33;99327.50;;;-1.07;100.00
15880;BME280;61999;51.514;14.614;2024-01-06T08:57:02;99328.06;;;-1.01;100.00
15880;BME280;61999;51.514;14.614;2024-01-06T08:59:30;99327.75;;;-0.93;100.00
15880;BME280;61999;51.514;14.614;2024-01-06T09:01:58;99333.41;;;-0.85;100.00
15880;BME280;61999;51.514;14.614;2024-01-06T09:04:26;99334.25;;;-0.84;100.00
15880;BME280;61999;51.514;14.614;2024-01-06T09:06:56;99331.53;;;-0.81;100.00
15880;BME280;61999;51.514;14.614;2024-01-06T09:09:24;99330.47;;;-0.77;100.00
15880;BME280;61999;51.514;14.614;2024-01-06T09:11:52;99337.59;;;-0.82;100.00
15880;BME280;61999;51.514;14.614;2024-01-06T09:14:20;99340.63;;;-0.72;100.00
15880;BME280;61999;51.514;14.614;2024-01-06T09:16:48;99343.22;;;-0.72;100.00
15880;BME280;61999;51.514;14.614;2024-01-06T09:19:16;99337.63;;;-0.63;100.00
15880;BME280;61999;51.514;14.614;2024-01-06T09:21:44;99336.94;;;-0.67;100.00
15880;BME280;61999;51.514;14.614;2024-01-06T09:24:13;99342.69;;;-0.60;100.00
15880;BME280;61999;51.514;14.614;2024-01-06T09:26:42;99350.06;;;-0.71;100.00
15880;BME280;61999;51.514;14.614;2024-01-06T09:29:16;99351.59;;;-0.67;100.00
15880;BME280;61999;51.514;14.614;2024-01-06T09:31:45;99348.91;;;-0.64;100.00
15880;BME280;61999;51.514;14.614;2024-01-06T09:34:13;99349.66;;;-0.62;100.00
15880;BME280;61999;51.514;14.614;2024-01-06T09:36:41;99346.78;;;-0.56;100.00
15880;BME280;61999;51.514;14.614;2024-01-06T09:39:09;99358.22;;;-0.60;100.00
15880;BME280;61999;51.514;14.614;2024-01-06T09:41:39;99360.53;;;-0.54;100.00
15880;BME280;61999;51.514;14.614;2024-01-06T09:44:07;99353.72;;;-0.57;100.00
15880;BME280;61999;51.514;14.614;2024-01-06T09:46:36;99347.72;;;-0.57;100.00
15880;BME280;61999;51.514;14.614;2024-01-06T09:49:08;99357.66;;;-0.48;100.00
15880;BME280;61999;51.514;14.614;2024-01-06T09:51:39;99352.47;;;-0.48;100.00
15880;BME280;61999;51.514;14.614;2024-01-06T09:54:09;99356.63;;;-0.44;100.00
15880;BME280;61999;51.514;14.614;2024-01-06T09:56:45;99355.34;;;-0.54;100.00
15880;BME280;61999;51.514;14.614;2024-01-06T09:59:14;99366.00;;;-0.41;100.00
15880;BME280;61999;51.514;14.614;2024-01-06T10:01:42;99366.97;;;-0.44;100.00
15880;BME280;61999;51.514;14.614;2024-01-06T10:04:12;99361.72;;;-0.42;100.00
15880;BME280;61999;51.514;14.614;2024-01-06T10:06:43;99366.41;;;-0.32;100.00
15880;BME280;61999;51.514;14.614;2024-01-06T10:09:12;99371.09;;;-0.40;100.00
15880;BME280;61999;51.514;14.614;2024-01-06T10:11:42;99359.22;;;-0.44;100.00
15880;BME280;61999;51.514;14.614;2024-01-06T10:14:12;99359.34;;;-0.47;100.00
15880;BME280;61999;51.514;14.614;2024-01-06T10:16:40;99373.63;;;-0.38;100.00
15880;BME280;61999;51.514;14.614;2024-01-06T10:19:08;99367.34;;;-0.33;100.00
15880;BME280;61999;51.514;14.614;2024-01-06T10:21:36;99362.72;;;-0.26;100.00
15880;BME280;61999;51.514;14.614;2024-01-06T10:24:08;99356.41;;;-0.20;100.00
15880;BME280;61999;51.514;14.614;2024-01-06T10:26:36;99374.03;;;-0.28;100.00
15880;BME280;61999;51.514;14.614;2024-01-06T10:29:07;99363.69;;;-0.28;100.00
15880;BME280;61999;51.514;14.614;2024-01-06T10:31:35;99373.34;;;-0.32;100.00
15880;BME280;61999;51.514;14.614;2024-01-06T10:34:04;99369.50;;;-0.23;100.00
15880;BME280;61999;51.514;14.614;2024-01-06T10:36:33;99364.09;;;-0.19;100.00
15880;BME280;61999;51.514;14.614;2024-01-06T10:39:03;99379.63;;;-0.19;100.00
15880;BME280;61999;51.514;14.614;2024-01-06T10:41:31;99379.72;;;-0.20;100.00
15880;BME280;61999;51.514;14.614;2024-01-06T10:44:01;99372.00;;;-0.22;100.00
15880;BME280;61999;51.514;14.614;2024-01-06T10:46:32;99383.00;;;-0.36;100.00
15880;BME280;61999;51.514;14.614;2024-01-06T10:49:01;99380.47;;;-0.37;100.00
15880;BME280;61999;51.514;14.614;2024-01-06T10:51:33;99380.91;;;-0.27;100.00
15880;BME280;61999;51.514;14.614;2024-01-06T10:54:02;99377.41;;;-0.26;100.00
15880;BME280;61999;51.514;14.614;2024-01-06T10:56:30;99374.25;;;-0.14;100.00
15880;BME280;61999;51.514;14.614;2024-01-06T10:59:00;99377.41;;;-0.26;100.00
15880;BME280;61999;51.514;14.614;2024-01-06T11:01:30;99378.94;;;-0.22;100.00
15880;BME280;61999;51.514;14.614;2024-01-06T11:04:02;99376.00;;;-0.15;100.00
15880;BME280;61999;51.514;14.614;2024-01-06T11:06:31;99371.47;;;-0.10;100.00
15880;BME280;61999;51.514;14.614;2024-01-06T11:09:09;99374.13;;;-0.11;100.00
15880;BME280;61999;51.514;14.614;2024-01-06T11:11:39;99373.06;;;-0.07;100.00
15880;BME280;61999;51.514;14.614;2024-01-06T11:14:19;99373.19;;;-0.10;100.00
15880;BME280;61999;51.514;14.614;2024-01-06T11:16:47;99370.81;;;-0.15;100.00
15880;BME280;61999;51.514;14.614;2024-01-06T11:19:45;99378.31;;;-0.27;100.00
15880;BME280;61999;51.514;14.614;2024-01-06T11:22:26;99374.03;;;-0.28;100.00
15880;BME280;61999;51.514;14.614;2024-01-06T11:24:57;99378.66;;;-0.35;100.00
15880;BME280;61999;51.514;14.614;2024-01-06T11:27:31;99371.66;;;-0.33;100.00
15880;BME280;61999;51.514;14.614;2024-01-06T11:30:02;99379.09;;;-0.25;100.00
15880;BME280;61999;51.514;14.614;2024-01-06T11:32:34;99381.63;;;-0.24;100.00
15880;BME280;61999;51.514;14.614;2024-01-06T11:35:11;99384.25;;;-0.25;100.00
15880;BME280;61999;51.514;14.614;2024-01-06T11:37:55;99384.41;;;-0.28;100.00
15880;BME280;61999;51.514;14.614;2024-01-06T11:40:34;99382.88;;;-0.33;100.00
15880;BME280;61999;51.514;14.614;2024-01-06T11:43:06;99375.03;;;-0.31;100.00
15880;BME280;61999;51.514;14.614;2024-01-06T11:45:35;99380.75;;;-0.24;100.00
15880;BME280;61999;51.514;14.614;2024-01-06T11:48:06;99385.81;;;-0.21;100.00
15880;BME280;61999;51.514;14.614;2024-01-06T11:50:39;99382.38;;;-0.22;100.00
15880;BME280;61999;51.514;14.614;2024-01-06T11:53:11;99385.69;;;-0.18;100.00
15880;BME280;61999;51.514;14.614;2024-01-06T11:55:39;99387.34;;;-0.17;100.00
15880;BME280;61999;51.514;14.614;2024-01-06T11:58:09;99383.97;;;-0.19;100.00
15880;BME280;61999;51.514;14.614;2024-01-06T12:00:37;99382.44;;;-0.23;100.00
15880;BME280;61999;51.514;14.614;2024-01-06T12:03:06;99381.63;;;-0.24;100.00
15880;BME280;61999;51.514;14.614;2024-01-06T12:05:36;99391.56;;;-0.15;100.00
15880;BME280;61999;51.514;14.614;2024-01-06T12:08:05;99389.66;;;-0.11;100.00
15880;BME280;61999;51.514;14.614;2024-01-06T12:10:33;99389.16;;;-0.19;100.00
15880;BME280;61999;51.514;14.614;2024-01-06T12:13:04;99390.72;;;-0.15;100.00
15880;BME280;61999;51.514;14.614;2024-01-06T12:15:36;99391.69;;;-0.18;100.00
15880;BME280;61999;51.514;14.614;2024-01-06T12:18:07;99398.53;;;-0.17;100.00
15880;BME280;61999;51.514;14.614;2024-01-06T12:20:36;99400.94;;;-0.12;100.00
15880;BME280;61999;51.514;14.614;2024-01-06T12:23:04;99399.19;;;-0.12;100.00
15880;BME280;61999;51.514;14.614;2024-01-06T12:25:35;99404.97;;;-0.25;100.00
15880;BME280;61999;51.514;14.614;2024-01-06T12:28:05;99404.13;;;-0.45;100.00
15880;BME280;61999;51.514;14.614;2024-01-06T12:30:34;99410.16;;;-0.25;100.00
15880;BME280;61999;51.514;14.614;2024-01-06T12:33:03;99417.66;;;-0.19;100.00
15880;BME280;61999;51.514;14.614;2024-01-06T12:35:32;99414.91;;;-0.16;100.00
15880;BME280;61999;51.514;14.614;2024-01-06T12:38:02;99412.97;;;-0.11;100.00
15880;BME280;61999;51.514;14.614;2024-01-06T12:40:35;99408.63;;;-0.11;100.00
15880;BME280;61999;51.514;14.614;2024-01-06T12:43:04;99418.16;;;-0.11;100.00
15880;BME280;61999;51.514;14.614;2024-01-06T12:45:33;99415.84;;;-0.17;100.00
15880;BME280;61999;51.514;14.614;2024-01-06T12:48:01;99426.00;;;-0.13;100.00
15880;BME280;61999;51.514;14.614;2024-01-06T12:50:29;99421.66;;;-0.12;100.00